createdAt,value
2018-09-30T00:01:50.794Z,4.77
2018-09-30T00:04:18.228Z,4.60
2018-09-30T00:06:45.876Z,4.43
2018-09-30T00:09:13.487Z,5.77
2018-09-30T00:11:40.933Z,6.17
2018-09-30T00:14:08.391Z,5.93
2018-09-30T00:16:35.901Z,6.23
2018-09-30T00:19:03.371Z,5.80
2018-09-30T00:21:30.829Z,5.80
2018-09-30T00:24:03.915Z,6.63
2018-09-30T00:26:37.082Z,7.23
2018-09-30T00:29:04.592Z,7.53
2018-09-30T00:31:32.330Z,7.20
2018-09-30T00:34:05.459Z,7.63
2018-09-30T00:36:32.934Z,7.03
2018-09-30T00:39:00.395Z,6.83
2018-09-30T00:41:27.827Z,6.47
2018-09-30T00:43:55.232Z,6.20
2018-09-30T00:46:22.675Z,8.57
2018-09-30T00:48:50.173Z,7.70
2018-09-30T00:51:17.885Z,7.60
2018-09-30T00:53:45.301Z,7.23
2018-09-30T00:56:12.739Z,7.07
2018-09-30T00:58:40.148Z,7.10
2018-09-30T01:01:07.627Z,7.60
2018-09-30T01:03:35.024Z,7.43
2018-09-30T01:06:02.500Z,7.67
2018-09-30T01:08:29.904Z,6.60
2018-09-30T01:10:57.348Z,6.40
2018-09-30T01:13:24.874Z,6.60
2018-09-30T01:15:52.306Z,6.30
2018-09-30T01:18:19.707Z,7.10
2018-09-30T01:20:47.143Z,7.37
2018-09-30T01:23:14.587Z,7.03
2018-09-30T01:25:42.024Z,7.90
2018-09-30T01:28:09.512Z,8.30
2018-09-30T01:30:36.973Z,6.57
2018-09-30T01:33:04.400Z,6.13
2018-09-30T01:35:31.936Z,5.60
2018-09-30T01:37:59.463Z,6.20
2018-09-30T01:40:26.883Z,5.53
2018-09-30T01:42:54.323Z,5.50
2018-09-30T01:45:21.747Z,5.57
2018-09-30T01:47:49.165Z,6.13
2018-09-30T01:50:16.600Z,5.70
2018-09-30T01:52:55.363Z,4.67
2018-09-30T01:55:22.835Z,5.20
2018-09-30T01:57:50.273Z,5.10
2018-09-30T02:00:18.230Z,5.20
2018-09-30T02:02:46.195Z,4.97
2018-09-30T02:05:14.267Z,4.63
2018-09-30T02:07:41.742Z,5.50
2018-09-30T02:10:09.182Z,5.20
2018-09-30T02:12:36.902Z,5.63
2018-09-30T02:15:04.549Z,4.97
2018-09-30T02:17:32.622Z,6.30
2018-09-30T02:20:00.486Z,6.30
2018-09-30T02:22:28.407Z,5.63
2018-09-30T02:24:55.877Z,5.50
2018-09-30T02:27:23.423Z,7.70
2018-09-30T02:29:50.890Z,5.50
2018-09-30T02:32:18.699Z,5.87
2018-09-30T02:34:46.187Z,7.50
2018-09-30T02:37:13.638Z,5.40
2018-09-30T02:39:41.128Z,5.33
2018-09-30T02:42:09.207Z,5.27
2018-09-30T02:44:36.628Z,5.20
2018-09-30T02:47:04.113Z,5.90
2018-09-30T02:49:31.550Z,5.57
2018-09-30T02:51:59.101Z,5.40
2018-09-30T02:54:26.553Z,4.93
2018-09-30T02:56:54.146Z,5.17
2018-09-30T02:59:21.597Z,5.90
2018-09-30T03:01:49.288Z,5.20
2018-09-30T03:04:16.919Z,6.20
2018-09-30T03:06:50.056Z,5.93
2018-09-30T03:09:18.353Z,5.60
2018-09-30T03:11:46.023Z,6.60
2018-09-30T03:14:14.691Z,5.50
2018-09-30T03:16:43.567Z,6.55
2018-09-30T03:19:11.057Z,5.60
2018-09-30T03:21:38.527Z,5.27
2018-09-30T03:24:07.147Z,5.03
2018-09-30T03:26:34.622Z,5.50
2018-09-30T03:29:02.200Z,5.70
2018-09-30T03:31:29.672Z,6.53
2018-09-30T03:33:59.646Z,5.77
2018-09-30T03:36:29.316Z,6.90
2018-09-30T03:38:59.719Z,6.50
2018-09-30T03:41:28.314Z,5.70
2018-09-30T03:43:56.789Z,6.30
2018-09-30T03:46:24.275Z,5.70
2018-09-30T03:48:51.702Z,5.60
2018-09-30T03:51:19.241Z,5.97
2018-09-30T03:53:47.291Z,6.47
2018-09-30T03:56:16.000Z,6.80
2018-09-30T03:58:44.789Z,6.50
2018-09-30T04:01:14.134Z,6.37
2018-09-30T04:03:42.575Z,6.87
2018-09-30T04:06:12.189Z,6.20
2018-09-30T04:08:40.599Z,7.15
2018-09-30T04:11:09.030Z,7.20
2018-09-30T04:13:37.455Z,6.93
2018-09-30T04:16:05.024Z,7.03
2018-09-30T04:18:33.595Z,6.53
2018-09-30T04:21:01.156Z,6.47
2018-09-30T04:23:28.671Z,7.43
2018-09-30T04:25:56.140Z,8.25
2018-09-30T04:28:23.802Z,7.50
2018-09-30T04:30:51.758Z,7.97
2018-09-30T04:33:19.193Z,7.20
2018-09-30T04:35:46.730Z,7.07
2018-09-30T04:38:14.192Z,6.63
2018-09-30T04:40:41.650Z,7.73
2018-09-30T04:43:09.107Z,9.17
2018-09-30T04:45:36.554Z,7.90
2018-09-30T04:48:04.062Z,8.10
2018-09-30T04:50:31.559Z,8.37
2018-09-30T04:52:59.361Z,8.70
2018-09-30T04:55:26.784Z,8.23
2018-09-30T04:57:54.222Z,8.87
2018-09-30T05:00:21.769Z,8.90
2018-09-30T05:02:49.252Z,10.10
2018-09-30T05:05:16.746Z,8.20
2018-09-30T05:07:44.188Z,7.77
2018-09-30T05:10:11.640Z,9.07
2018-09-30T05:12:39.095Z,9.90
2018-09-30T05:15:06.601Z,8.80
2018-09-30T05:17:34.287Z,9.30
2018-09-30T05:20:01.846Z,8.93
2018-09-30T05:22:29.278Z,8.57
2018-09-30T05:24:56.747Z,8.60
2018-09-30T05:27:24.188Z,9.07
2018-09-30T05:29:51.612Z,9.13
2018-09-30T05:32:19.187Z,8.90
2018-09-30T05:34:46.619Z,8.80
2018-09-30T05:37:14.098Z,9.43
2018-09-30T05:39:41.538Z,8.70
2018-09-30T05:42:08.987Z,8.90
2018-09-30T05:44:36.402Z,9.10
2018-09-30T05:47:03.858Z,9.83
2018-09-30T05:49:31.302Z,10.03
2018-09-30T05:51:58.801Z,9.13
2018-09-30T05:54:26.268Z,8.60
2018-09-30T05:56:53.780Z,8.87
2018-09-30T05:59:21.259Z,9.17
2018-09-30T06:01:48.716Z,9.53
2018-09-30T06:04:16.187Z,10.17
2018-09-30T06:06:43.826Z,9.77
2018-09-30T06:09:13.302Z,9.70
2018-09-30T06:11:41.097Z,9.40
2018-09-30T06:14:08.767Z,9.27
2018-09-30T06:16:36.188Z,8.90
2018-09-30T06:19:03.637Z,9.50
2018-09-30T06:21:31.162Z,9.97
2018-09-30T06:23:58.778Z,10.23
2018-09-30T06:26:26.449Z,9.70
2018-09-30T06:28:53.929Z,9.63
2018-09-30T06:31:21.380Z,10.47
2018-09-30T06:33:48.925Z,9.53
2018-09-30T06:36:16.455Z,9.73
2018-09-30T06:38:44.034Z,9.60
2018-09-30T06:41:11.554Z,10.03
2018-09-30T06:43:39.058Z,10.27
2018-09-30T06:46:06.640Z,10.80
2018-09-30T06:48:34.374Z,10.17
2018-09-30T06:51:01.973Z,9.93
2018-09-30T06:53:29.525Z,10.17
2018-09-30T06:55:57.063Z,10.10
2018-09-30T06:58:24.508Z,9.07
2018-09-30T07:00:51.942Z,10.80
2018-09-30T07:03:19.419Z,10.13
2018-09-30T07:05:47.291Z,8.00
2018-09-30T07:08:15.001Z,8.47
2018-09-30T07:10:42.640Z,8.77
2018-09-30T07:13:10.087Z,9.07
2018-09-30T07:15:37.511Z,7.57
2018-09-30T07:18:05.018Z,8.00
2018-09-30T07:20:32.478Z,9.37
2018-09-30T07:22:59.933Z,8.03
2018-09-30T07:25:27.415Z,8.90
2018-09-30T07:27:55.123Z,8.80
2018-09-30T07:30:22.578Z,8.40
2018-09-30T07:32:50.047Z,9.17
2018-09-30T07:35:17.839Z,8.00
2018-09-30T07:37:45.313Z,8.80
2018-09-30T07:40:12.896Z,8.33
2018-09-30T07:42:40.462Z,9.37
2018-09-30T07:45:07.930Z,7.73
2018-09-30T07:47:35.392Z,8.70
2018-09-30T07:50:02.936Z,8.63
2018-09-30T07:52:30.425Z,25.07
2018-09-30T07:54:57.841Z,7.20
2018-09-30T07:57:25.331Z,9.03
2018-09-30T07:59:53.402Z,8.10
2018-09-30T08:02:20.831Z,8.87
2018-09-30T08:04:48.355Z,9.70
2018-09-30T08:07:15.775Z,8.10
2018-09-30T08:09:43.204Z,8.10
2018-09-30T08:15:13.766Z,8.37
2018-09-30T08:17:41.186Z,8.67
2018-09-30T08:20:08.607Z,7.70
2018-09-30T08:22:36.016Z,6.60
2018-09-30T08:25:03.435Z,7.40
2018-09-30T08:27:30.862Z,6.97
2018-09-30T08:29:58.274Z,6.50
2018-09-30T08:32:25.684Z,6.57
2018-09-30T08:34:53.261Z,6.30
2018-09-30T08:37:26.331Z,6.23
2018-09-30T08:39:53.772Z,6.63
2018-09-30T08:42:21.129Z,7.07
2018-09-30T08:44:48.603Z,6.13
2018-09-30T08:47:16.079Z,5.00
2018-09-30T08:49:43.488Z,5.97
2018-09-30T08:52:10.926Z,5.53
2018-09-30T08:54:38.371Z,5.20
2018-09-30T08:57:06.706Z,5.13
2018-09-30T08:59:34.147Z,10.53
2018-09-30T09:02:01.744Z,4.27
2018-09-30T09:04:29.343Z,4.10
2018-09-30T09:06:56.778Z,4.40
2018-09-30T09:09:24.170Z,5.00
2018-09-30T09:11:51.591Z,5.70
2018-09-30T09:14:19.551Z,4.13
2018-09-30T09:16:47.204Z,5.07
2018-09-30T09:19:14.629Z,4.30
2018-09-30T09:21:42.079Z,4.67
2018-09-30T09:24:09.536Z,4.30
2018-09-30T09:26:36.943Z,5.10
2018-09-30T09:29:04.374Z,5.60
2018-09-30T09:31:31.852Z,4.67
2018-09-30T09:33:59.271Z,4.90
2018-09-30T09:36:26.891Z,4.70
2018-09-30T09:38:54.407Z,5.20
2018-09-30T09:41:21.830Z,5.33
2018-09-30T09:43:49.903Z,5.07
2018-09-30T09:46:17.353Z,5.10
2018-09-30T09:48:44.863Z,6.00
2018-09-30T09:51:12.269Z,5.67
2018-09-30T09:53:39.670Z,6.70
2018-09-30T09:56:07.067Z,5.37
2018-09-30T09:58:34.475Z,6.23
2018-09-30T10:01:05.781Z,5.67
2018-09-30T10:03:33.235Z,5.40
2018-09-30T10:06:00.864Z,5.20
2018-09-30T10:08:28.315Z,5.37
2018-09-30T10:10:57.889Z,6.00
2018-09-30T10:13:25.415Z,6.20
2018-09-30T10:15:53.252Z,6.17
2018-09-30T10:18:20.710Z,7.20
2018-09-30T10:20:48.584Z,6.40
2018-09-30T10:23:16.015Z,5.43
2018-09-30T10:25:43.454Z,5.57
2018-09-30T10:28:10.954Z,5.70
2018-09-30T10:30:38.387Z,6.57
2018-09-30T10:33:06.487Z,6.30
2018-09-30T10:35:34.040Z,6.63
2018-09-30T10:38:01.498Z,7.67
2018-09-30T10:40:29.720Z,5.90
2018-09-30T10:43:00.048Z,7.20
2018-09-30T10:45:28.996Z,7.13
2018-09-30T10:47:58.490Z,7.60
2018-09-30T10:50:25.921Z,7.57
2018-09-30T10:52:53.701Z,6.23
2018-09-30T10:55:23.771Z,6.53
2018-09-30T10:57:51.866Z,6.80
2018-09-30T11:00:19.488Z,6.40
2018-09-30T11:02:46.900Z,7.50
2018-09-30T11:05:14.294Z,7.30
2018-09-30T11:07:42.187Z,7.60
2018-09-30T11:10:10.024Z,7.23
2018-09-30T11:12:37.459Z,7.20
2018-09-30T11:15:05.179Z,7.50
2018-09-30T11:17:32.615Z,7.47
2018-09-30T11:20:00.397Z,6.43
2018-09-30T11:22:27.883Z,6.37
2018-09-30T11:24:56.647Z,7.80
2018-09-30T11:27:24.259Z,7.17
2018-09-30T11:29:51.747Z,6.83
2018-09-30T11:32:19.222Z,6.10
2018-09-30T11:34:46.759Z,7.63
2018-09-30T11:37:14.275Z,6.80
2018-09-30T11:39:41.782Z,5.60
2018-09-30T11:42:09.228Z,6.07
2018-09-30T11:44:36.667Z,6.33
2018-09-30T11:47:04.299Z,6.00
2018-09-30T11:49:32.051Z,6.20
2018-09-30T11:51:59.848Z,6.40
2018-09-30T11:54:27.411Z,6.50
2018-09-30T11:56:54.869Z,6.10
2018-09-30T11:59:23.014Z,6.40
2018-09-30T12:01:54.446Z,6.53
2018-09-30T12:04:22.111Z,6.77
2018-09-30T12:06:50.425Z,6.33
2018-09-30T12:09:18.320Z,5.70
2018-09-30T12:11:45.843Z,6.90
2018-09-30T12:14:14.016Z,6.57
2018-09-30T12:16:41.680Z,6.33
2018-09-30T12:19:09.239Z,5.80
2018-09-30T12:21:36.912Z,7.47
2018-09-30T12:24:04.386Z,5.83
2018-09-30T12:26:31.928Z,6.53
2018-09-30T12:28:59.391Z,5.87
2018-09-30T12:31:26.966Z,6.20
2018-09-30T12:33:54.668Z,7.50
2018-09-30T12:36:22.187Z,6.70
2018-09-30T12:38:49.644Z,6.37
2018-09-30T12:41:17.119Z,6.73
2018-09-30T12:43:44.655Z,6.07
2018-09-30T12:46:12.595Z,5.90
2018-09-30T12:48:40.088Z,5.87
2018-09-30T12:51:07.573Z,6.50
2018-09-30T12:53:35.133Z,6.63
2018-09-30T12:56:03.258Z,5.83
2018-09-30T12:58:31.803Z,6.30
2018-09-30T13:00:59.333Z,5.50
2018-09-30T13:03:27.104Z,5.10
2018-09-30T13:05:54.643Z,5.00
2018-09-30T13:08:22.172Z,4.93
2018-09-30T13:10:49.646Z,5.80
2018-09-30T13:13:17.236Z,4.40
2018-09-30T13:15:44.810Z,5.27
2018-09-30T13:18:12.343Z,6.43
2018-09-30T13:20:39.902Z,5.33
2018-09-30T13:23:07.320Z,5.27
2018-09-30T13:25:35.129Z,5.37
2018-09-30T13:28:02.567Z,6.33
2018-09-30T13:30:30.083Z,6.17
2018-09-30T13:32:57.546Z,6.90
2018-09-30T13:35:25.077Z,7.10
2018-09-30T13:37:52.707Z,6.90
2018-09-30T13:40:20.218Z,7.53
2018-09-30T13:42:47.603Z,6.23
2018-09-30T13:45:15.023Z,7.60
2018-09-30T13:47:42.443Z,6.27
2018-09-30T13:50:09.879Z,6.67
2018-09-30T13:52:37.263Z,6.50
2018-09-30T13:55:04.751Z,7.00
2018-09-30T13:57:32.251Z,7.17
2018-09-30T13:59:59.713Z,6.83
2018-09-30T14:02:27.154Z,5.93
2018-09-30T14:04:54.583Z,7.60
2018-09-30T14:07:21.979Z,5.93
2018-09-30T14:09:50.038Z,7.10
2018-09-30T14:12:26.017Z,7.50
2018-09-30T14:14:53.373Z,7.40
2018-09-30T14:17:20.740Z,7.70
2018-09-30T14:19:48.038Z,6.93
2018-09-30T14:22:15.380Z,8.80
2018-09-30T14:24:42.689Z,7.00
2018-09-30T14:27:10.128Z,6.73
2018-09-30T14:29:37.349Z,7.37
2018-09-30T14:32:04.709Z,8.10
2018-09-30T14:34:32.009Z,6.47
2018-09-30T14:36:59.331Z,6.40
2018-09-30T14:39:26.715Z,6.07
2018-09-30T14:41:54.097Z,5.50
2018-09-30T14:44:21.448Z,5.50
2018-09-30T14:46:48.772Z,3.90
2018-09-30T14:49:16.100Z,3.30
2018-09-30T14:51:43.413Z,4.07
2018-09-30T14:54:10.768Z,4.07
2018-09-30T14:56:38.125Z,2.70
2018-09-30T14:59:05.497Z,2.80
2018-09-30T15:01:32.797Z,3.60
2018-09-30T15:04:00.233Z,3.03
2018-09-30T15:06:27.549Z,3.83
2018-09-30T15:08:54.960Z,3.67
2018-09-30T15:11:22.297Z,3.57
2018-09-30T15:13:50.196Z,3.67
2018-09-30T15:16:17.574Z,3.63
2018-09-30T15:18:44.997Z,4.10
2018-09-30T15:21:12.329Z,4.43
2018-09-30T15:23:39.637Z,3.80
2018-09-30T15:26:07.039Z,3.83
2018-09-30T15:28:34.601Z,4.10
2018-09-30T15:31:01.977Z,4.00
2018-09-30T15:33:29.321Z,4.23
2018-09-30T15:35:56.674Z,4.33
2018-09-30T15:38:24.035Z,4.70
2018-09-30T15:40:51.409Z,4.30
2018-09-30T15:43:18.742Z,4.13
2018-09-30T15:45:46.057Z,4.17
2018-09-30T15:48:13.425Z,3.50
2018-09-30T15:50:40.826Z,5.53
2018-09-30T15:53:08.189Z,5.70
2018-09-30T15:55:35.490Z,4.00
2018-09-30T15:58:03.074Z,3.30
2018-09-30T16:00:30.421Z,4.30
2018-09-30T16:02:57.727Z,3.90
2018-09-30T16:05:25.074Z,4.00
2018-09-30T16:07:52.408Z,4.00
2018-09-30T16:10:19.730Z,3.83
2018-09-30T16:12:47.069Z,3.50
2018-09-30T16:15:14.408Z,3.00
2018-09-30T16:17:41.768Z,3.60
2018-09-30T16:20:09.181Z,4.30
2018-09-30T16:22:36.501Z,3.90
2018-09-30T16:25:04.062Z,3.70
2018-09-30T16:27:31.429Z,3.43
2018-09-30T16:29:58.783Z,3.83
2018-09-30T16:32:26.112Z,5.80
2018-09-30T16:34:53.426Z,3.87
2018-09-30T16:37:20.953Z,4.37
2018-09-30T16:39:48.241Z,4.57
2018-09-30T16:42:15.532Z,4.13
2018-09-30T16:44:42.837Z,5.90
2018-09-30T16:47:10.269Z,5.80
2018-09-30T16:49:37.937Z,5.63
2018-09-30T16:52:05.302Z,4.10
2018-09-30T16:54:32.633Z,4.20
2018-09-30T16:56:59.956Z,4.10
2018-09-30T16:59:27.275Z,4.47
2018-09-30T17:01:54.605Z,5.60
2018-09-30T17:04:21.968Z,5.90
2018-09-30T17:06:49.327Z,5.67
2018-09-30T17:09:16.639Z,7.17
2018-09-30T17:11:43.964Z,7.27
2018-09-30T17:14:11.272Z,7.40
2018-09-30T17:16:38.629Z,9.93
2018-09-30T17:19:05.964Z,9.37
2018-09-30T17:21:33.759Z,9.47
2018-09-30T17:24:01.077Z,9.03
2018-09-30T17:26:28.393Z,9.90
2018-09-30T17:28:55.740Z,8.80
2018-09-30T17:31:23.050Z,9.37
2018-09-30T17:33:50.973Z,10.97
2018-09-30T17:36:18.306Z,11.77
2018-09-30T17:38:45.673Z,12.50
2018-09-30T17:41:13.809Z,11.50
2018-09-30T17:43:41.173Z,12.40
2018-09-30T17:46:08.827Z,11.00
2018-09-30T17:48:36.185Z,10.50
2018-09-30T17:51:03.558Z,11.10
2018-09-30T17:53:30.916Z,8.50
2018-09-30T17:55:58.268Z,8.83
2018-09-30T17:58:25.725Z,8.63
2018-09-30T18:00:53.044Z,10.93
2018-09-30T18:03:20.413Z,9.70
2018-09-30T18:05:47.821Z,9.07
2018-09-30T18:08:15.158Z,10.33
2018-09-30T18:10:42.715Z,11.33
2018-09-30T18:13:10.246Z,16.93
2018-09-30T18:15:37.722Z,15.40
2018-09-30T18:18:05.134Z,13.73
2018-09-30T18:20:32.517Z,12.57
2018-09-30T18:22:59.900Z,12.70
2018-09-30T18:25:27.249Z,11.90
2018-09-30T18:27:54.562Z,10.70
2018-09-30T18:30:21.969Z,11.20
2018-09-30T18:32:49.268Z,9.80
2018-09-30T18:35:16.602Z,11.50
2018-09-30T18:37:43.984Z,10.43
2018-09-30T18:40:11.382Z,11.20
2018-09-30T18:42:38.668Z,12.00
2018-09-30T18:45:06.068Z,13.97
2018-09-30T18:47:33.405Z,15.40
2018-09-30T18:50:00.817Z,16.03
2018-09-30T18:52:28.221Z,24.07
2018-09-30T18:54:55.568Z,25.00
2018-09-30T18:57:23.050Z,25.57
2018-09-30T18:59:50.425Z,27.00
2018-09-30T19:02:17.796Z,26.83
2018-09-30T19:04:45.157Z,23.43
2018-09-30T19:07:12.529Z,17.90
2018-09-30T19:09:39.917Z,14.77
2018-09-30T19:12:07.429Z,13.50
2018-09-30T19:14:34.729Z,10.83
2018-09-30T19:17:02.055Z,10.90
2018-09-30T19:19:29.553Z,10.47
2018-09-30T19:21:57.342Z,9.80
2018-09-30T19:24:24.667Z,8.93
2018-09-30T19:26:52.035Z,8.90
2018-09-30T19:29:19.393Z,8.83
2018-09-30T19:31:46.716Z,8.97
2018-09-30T19:34:14.141Z,10.00
2018-09-30T19:36:48.153Z,9.93
2018-09-30T19:39:15.505Z,9.43
2018-09-30T19:41:42.980Z,9.30
2018-09-30T19:44:10.297Z,10.00
2018-09-30T19:46:37.649Z,11.03
2018-09-30T19:49:05.061Z,10.10
2018-09-30T19:51:32.437Z,10.50
2018-09-30T19:53:59.882Z,10.37
2018-09-30T19:56:27.381Z,11.07
2018-09-30T19:58:54.693Z,12.70
2018-09-30T20:01:22.081Z,12.87
2018-09-30T20:03:49.436Z,12.10
2018-09-30T20:06:16.857Z,10.80
2018-09-30T20:08:44.185Z,11.50
2018-09-30T20:11:11.582Z,11.83
2018-09-30T20:13:38.996Z,11.87
2018-09-30T20:16:06.359Z,11.20
2018-09-30T20:18:34.033Z,11.07
2018-09-30T20:21:01.603Z,10.73
2018-09-30T20:23:28.993Z,10.30
2018-09-30T20:25:56.305Z,12.13
2018-09-30T20:28:23.788Z,11.37
2018-09-30T20:30:51.209Z,12.20
2018-09-30T20:33:18.873Z,10.10
2018-09-30T20:35:46.565Z,11.43
2018-09-30T20:38:13.889Z,10.93
2018-09-30T20:40:41.894Z,11.87
2018-09-30T20:43:09.247Z,11.00
2018-09-30T20:45:37.273Z,12.83
2018-09-30T20:48:04.712Z,11.70
2018-09-30T20:50:32.037Z,15.53
2018-09-30T20:52:59.365Z,12.27
2018-09-30T20:55:26.808Z,12.70
2018-09-30T20:57:54.377Z,12.00
2018-09-30T21:00:21.905Z,12.60
2018-09-30T21:02:49.375Z,12.00
2018-09-30T21:05:28.486Z,11.70
2018-09-30T21:07:55.813Z,13.90
2018-09-30T21:10:23.262Z,12.50
2018-09-30T21:12:50.625Z,12.33
2018-09-30T21:15:17.977Z,13.60
2018-09-30T21:17:45.340Z,12.70
2018-09-30T21:20:12.695Z,11.77
2018-09-30T21:22:40.049Z,11.40
2018-09-30T21:25:07.447Z,13.60
2018-09-30T21:27:34.753Z,13.00
2018-09-30T21:30:02.339Z,13.60
2018-09-30T21:32:29.681Z,13.40
2018-09-30T21:34:57.041Z,12.97
2018-09-30T21:37:24.565Z,14.20
2018-09-30T21:39:52.270Z,14.87
2018-09-30T21:42:19.961Z,14.80
2018-09-30T21:44:47.278Z,14.70
2018-09-30T21:47:14.795Z,13.83
2018-09-30T21:49:42.118Z,14.30
2018-09-30T21:52:09.466Z,13.53
2018-09-30T21:54:36.825Z,15.20
2018-09-30T21:57:04.171Z,13.73
2018-09-30T21:59:31.480Z,13.00
2018-09-30T22:01:58.822Z,14.80
2018-09-30T22:04:26.189Z,13.10
2018-09-30T22:06:53.533Z,14.10
2018-09-30T22:09:20.837Z,14.57
2018-09-30T22:11:48.233Z,13.63
2018-09-30T22:14:15.553Z,14.57
2018-09-30T22:16:42.884Z,14.20
2018-09-30T22:19:10.294Z,13.97
2018-09-30T22:21:37.585Z,13.80
2018-09-30T22:24:04.997Z,13.00
2018-09-30T22:26:32.357Z,13.80
2018-09-30T22:28:59.789Z,13.97
2018-09-30T22:31:27.153Z,14.33
2018-09-30T22:33:54.719Z,13.97
2018-09-30T22:36:22.059Z,13.50
2018-09-30T22:38:49.416Z,13.30
2018-09-30T22:41:16.773Z,14.27
2018-09-30T22:43:44.270Z,14.07
2018-09-30T22:46:11.629Z,13.70
2018-09-30T22:48:38.961Z,13.93
2018-09-30T22:51:06.312Z,14.13
2018-09-30T22:53:33.692Z,14.67
2018-09-30T22:56:01.063Z,14.00
2018-09-30T22:58:28.419Z,13.50
2018-09-30T23:00:55.760Z,14.60
2018-09-30T23:03:23.153Z,13.17
2018-09-30T23:05:50.481Z,13.50
2018-09-30T23:08:17.827Z,13.10
2018-09-30T23:10:45.192Z,15.10
2018-09-30T23:13:12.493Z,13.60
2018-09-30T23:15:39.825Z,14.23
2018-09-30T23:18:07.177Z,12.50
2018-09-30T23:20:34.552Z,14.73
2018-09-30T23:23:01.938Z,14.67
2018-09-30T23:25:29.274Z,13.93
2018-09-30T23:27:56.665Z,13.33
2018-09-30T23:30:23.981Z,14.50
2018-09-30T23:32:51.325Z,10.20
2018-09-30T23:35:18.688Z,13.67
2018-09-30T23:37:46.018Z,14.43
2018-09-30T23:40:13.554Z,13.17
2018-09-30T23:42:40.936Z,12.93
2018-09-30T23:45:08.281Z,13.27
2018-09-30T23:47:35.654Z,14.63
2018-09-30T23:50:03.005Z,13.37
2018-09-30T23:52:30.329Z,13.97
2018-09-30T23:54:57.711Z,14.13
2018-09-30T23:57:25.068Z,13.10
2018-09-30T23:59:52.401Z,13.03
